Time;durP1;ratioP1;P1;durP2;ratioP2;P2;SDS_P1;SDS_P2;PMS_P1;PMS_P2;Temp;Humidity;BMP_temperature;BMP_pressure;BME280_temperature;BME280_humidity;BME280_pressure;Samples;Min_cycle;Max_cycle;Signal;HPM_P1;HPM_P2
2023/01/13 00:01:27;;;;;;;1.60;1.10;;;11.10;98.20;;;;;;5017282;28;21019;-73
2023/01/13 00:03:54;;;;;;;1.60;1.10;;;11.10;98.20;;;;;;5026345;28;20475;-74
2023/01/13 00:06:24;;;;;;;1.60;1.20;;;11.10;98.20;;;;;;5021876;28;20542;-74
2023/01/13 00:08:53;;;;;;;1.60;1.13;;;11.10;98.20;;;;;;5024377;28;20570;-74
2023/01/13 00:11:21;;;;;;;1.60;1.10;;;11.10;98.20;;;;;;5024972;28;20479;-73
2023/01/13 00:13:48;;;;;;;1.60;1.10;;;11.10;98.20;;;;;;5028019;28;20792;-74
2023/01/13 00:16:17;;;;;;;1.50;1.00;;;11.10;98.20;;;;;;5024882;28;20479;-74
2023/01/13 00:18:45;;;;;;;1.60;1.10;;;11.10;98.20;;;;;;5028511;28;20454;-74
2023/01/13 00:21:13;;;;;;;1.60;1.10;;;11.10;98.20;;;;;;5029131;28;20481;-73
2023/01/13 00:23:41;;;;;;;1.60;1.07;;;11.10;98.20;;;;;;5022911;28;20518;-73
2023/01/13 00:26:10;;;;;;;1.60;1.00;;;11.00;98.20;;;;;;5027299;28;20999;-74
2023/01/13 00:28:37;;;;;;;1.60;1.10;;;11.00;98.20;;;;;;5023104;28;20487;-74
2023/01/13 00:31:09;;;;;;;1.60;1.10;;;11.00;98.20;;;;;;5028996;28;20970;-74
2023/01/13 00:33:38;;;;;;;1.60;1.10;;;11.00;98.20;;;;;;5025714;28;20842;-74
2023/01/13 00:36:06;;;;;;;1.60;1.10;;;11.00;98.20;;;;;;5024660;28;20498;-74
2023/01/13 00:38:35;;;;;;;1.60;1.10;;;11.00;98.20;;;;;;5026909;28;20482;-74
2023/01/13 00:41:04;;;;;;;1.60;1.10;;;11.00;98.20;;;;;;5028393;28;20522;-73
2023/01/13 00:43:31;;;;;;;1.60;1.10;;;11.00;98.20;;;;;;5032677;28;20476;-73
2023/01/13 00:45:58;;;;;;;1.60;1.10;;;11.00;98.20;;;;;;5028644;28;21204;-72
2023/01/13 00:48:27;;;;;;;1.60;1.10;;;11.00;98.20;;;;;;5028086;28;20482;-73
2023/01/13 00:50:59;;;;;;;1.60;1.10;;;11.00;98.20;;;;;;5033113;28;20553;-72
2023/01/13 00:53:27;;;;;;;1.60;1.10;;;11.00;98.20;;;;;;5028681;28;20827;-73
2023/01/13 00:56:00;;;;;;;1.60;1.10;;;11.00;98.20;;;;;;5036045;28;20495;-73
2023/01/13 00:58:27;;;;;;;1.60;1.10;;;11.00;98.20;;;;;;5024535;28;20495;-73
2023/01/13 01:00:54;;;;;;;1.60;1.10;;;11.00;98.20;;;;;;5024493;28;20467;-73
2023/01/13 01:03:21;;;;;;;1.60;1.10;;;11.00;98.20;;;;;;5027152;28;20458;-74
2023/01/13 01:05:47;;;;;;;1.60;1.10;;;11.00;98.20;;;;;;5037213;28;20479;-73
2023/01/13 01:08:16;;;;;;;1.60;1.10;;;11.00;98.20;;;;;;5031677;28;20491;-73
2023/01/13 01:10:43;;;;;;;1.60;1.10;;;11.00;98.20;;;;;;5035563;28;20462;-73
2023/01/13 01:13:13;;;;;;;1.60;1.10;;;10.90;98.20;;;;;;5031989;28;20474;-73
2023/01/13 01:15:40;;;;;;;1.60;1.10;;;10.90;98.20;;;;;;5041268;28;20483;-73
2023/01/13 01:18:08;;;;;;;1.57;1.10;;;10.90;98.20;;;;;;5017289;28;20479;-73
2023/01/13 01:20:37;;;;;;;1.97;1.77;;;10.90;98.20;;;;;;5045025;28;20462;-72
2023/01/13 01:23:04;;;;;;;1.60;1.10;;;10.90;98.20;;;;;;5015988;28;20686;-73
2023/01/13 01:25:33;;;;;;;1.50;1.00;;;10.90;98.20;;;;;;5046285;28;20478;-72
2023/01/13 01:28:00;;;;;;;1.60;1.10;;;10.90;98.20;;;;;;5014687;28;20487;-72
2023/01/13 01:30:28;;;;;;;1.60;1.13;;;10.90;98.20;;;;;;5043423;28;20486;-73
2023/01/13 01:32:56;;;;;;;1.60;1.10;;;10.90;98.20;;;;;;5015661;28;20567;-72
2023/01/13 01:35:22;;;;;;;1.60;1.10;;;10.80;98.20;;;;;;5044785;28;20871;-73
2023/01/13 01:37:49;;;;;;;1.60;1.13;;;10.80;98.20;;;;;;5016894;28;20577;-73
2023/01/13 01:40:17;;;;;;;1.80;1.40;;;10.90;98.20;;;;;;5045188;28;20465;-74
2023/01/13 01:45:30;;;;;;;1.60;1.10;;;10.80;98.20;;;;;;5040552;28;20981;-74
2023/01/13 01:48:01;;;;;;;1.60;1.10;;;10.80;98.20;;;;;;5014084;28;20507;-74
2023/01/13 01:50:29;;;;;;;1.60;1.10;;;10.70;98.20;;;;;;5044225;28;20573;-74
2023/01/13 01:53:01;;;;;;;1.60;1.10;;;10.60;98.20;;;;;;5015822;28;20840;-74
2023/01/13 01:55:33;;;;;;;1.60;1.10;;;10.50;98.20;;;;;;5041479;28;20483;-74
2023/01/13 01:58:07;;;;;;;1.60;1.10;;;10.50;98.20;;;;;;5014275;28;20499;-74
2023/01/13 02:00:34;;;;;;;1.60;1.17;;;10.40;98.20;;;;;;5036281;28;20482;-74
2023/01/13 02:03:01;;;;;;;1.60;1.10;;;10.30;98.20;;;;;;5015871;28;20484;-74
2023/01/13 02:05:28;;;;;;;1.60;1.10;;;10.30;98.20;;;;;;5042120;28;20999;-74
2023/01/13 02:07:58;;;;;;;1.60;1.10;;;10.20;98.20;;;;;;5013783;28;20484;-74
2023/01/13 02:10:27;;;;;;;1.60;1.00;;;10.10;98.20;;;;;;5041319;28;20486;-74
2023/01/13 02:12:54;;;;;;;1.60;1.00;;;10.10;98.20;;;;;;5015146;28;20517;-73
2023/01/13 02:15:29;;;;;;;1.60;1.10;;;10.10;98.20;;;;;;5042091;28;20547;-73
2023/01/13 02:18:15;;;;;;;1.60;1.10;;;10.00;98.20;;;;;;5013967;28;20980;-73
2023/01/13 02:21:01;;;;;;;1.60;1.13;;;10.00;98.20;;;;;;5042687;28;20482;-73
2023/01/13 02:27:26;;;;;;;1.60;1.10;;;9.90;98.20;;;;;;5008064;28;20482;-73
2023/01/13 02:33:03;;;;;;;1.60;1.10;;;9.70;98.20;;;;;;5010599;28;20525;-73
2023/01/13 02:35:36;;;;;;;1.60;1.20;;;9.60;98.20;;;;;;5045309;28;20478;-73
2023/01/13 02:38:11;;;;;;;1.60;1.10;;;9.60;98.20;;;;;;5016998;28;20478;-74
2023/01/13 02:40:46;;;;;;;1.60;1.20;;;9.60;98.20;;;;;;5041061;28;20458;-73
2023/01/13 02:46:10;;;;;;;1.60;1.10;;;9.50;98.20;;;;;;5026394;28;22496;-73
2023/01/13 02:48:40;;;;;;;1.60;1.20;;;9.50;98.20;;;;;;5030333;28;20462;-73
2023/01/13 02:51:12;;;;;;;1.60;1.20;;;9.40;98.20;;;;;;5017273;28;20487;-73
2023/01/13 02:53:43;;;;;;;1.60;1.20;;;9.40;98.20;;;;;;5030196;28;20524;-73
2023/01/13 02:56:13;;;;;;;1.60;1.20;;;9.30;98.20;;;;;;5024975;28;20832;-74
2023/01/13 02:58:41;;;;;;;1.60;1.20;;;9.30;98.20;;;;;;5025734;28;20469;-73
2023/01/13 03:01:09;;;;;;;1.60;1.20;;;9.20;98.20;;;;;;5028289;28;20518;-73
2023/01/13 03:03:36;;;;;;;1.63;1.30;;;9.20;98.20;;;;;;5029010;28;21259;-73
2023/01/13 03:06:16;;;;;;;1.60;1.20;;;9.20;98.20;;;;;;5034484;28;20857;-73
2023/01/13 03:08:49;;;;;;;1.60;1.20;;;9.20;98.20;;;;;;5026739;28;20467;-73
2023/01/13 03:11:18;;;;;;;1.60;1.20;;;9.20;98.20;;;;;;5020420;28;20483;-73
2023/01/13 03:14:06;;;;;;;1.60;1.20;;;9.10;98.20;;;;;;5029987;28;20469;-73
2023/01/13 03:16:47;;;;;;;1.60;1.17;;;9.10;98.20;;;;;;5027918;28;20487;-73
2023/01/13 03:19:25;;;;;;;1.60;1.20;;;9.10;98.20;;;;;;5030941;28;20536;-73
2023/01/13 03:21:56;;;;;;;1.60;1.20;;;9.10;98.20;;;;;;5023094;28;20482;-73
2023/01/13 03:24:30;;;;;;;1.60;1.20;;;9.10;98.20;;;;;;5036214;28;20462;-73
2023/01/13 03:27:02;;;;;;;1.60;1.20;;;9.10;98.20;;;;;;5020518;28;20491;-73
2023/01/13 03:29:35;;;;;;;1.60;1.20;;;9.10;98.20;;;;;;5033307;28;20541;-73
2023/01/13 03:32:08;;;;;;;1.60;1.20;;;9.10;98.20;;;;;;5019206;28;20561;-73
2023/01/13 03:34:39;;;;;;;1.60;1.10;;;9.00;98.20;;;;;;5038614;28;20466;-73
2023/01/13 03:37:09;;;;;;;1.60;1.23;;;9.00;98.20;;;;;;5017086;28;20549;-74
2023/01/13 03:39:39;;;;;;;1.60;1.20;;;9.00;98.20;;;;;;5036106;28;20477;-73
2023/01/13 03:42:10;;;;;;;1.60;1.20;;;9.00;98.20;;;;;;5022570;28;20475;-73
2023/01/13 03:44:43;;;;;;;1.60;1.20;;;8.90;98.20;;;;;;5044320;22;21068;-71
2023/01/13 03:47:20;;;;;;;1.70;1.30;;;8.90;98.20;;;;;;5018975;28;20485;-72
2023/01/13 03:49:54;;;;;;;1.60;1.20;;;8.90;98.20;;;;;;5026035;28;20844;-72
2023/01/13 03:52:25;;;;;;;1.60;1.10;;;8.80;98.20;;;;;;5024530;28;20523;-74
2023/01/13 03:54:56;;;;;;;1.63;1.27;;;8.80;98.20;;;;;;5024893;28;20588;-74
2023/01/13 03:57:29;;;;;;;1.60;1.20;;;8.80;98.20;;;;;;5012903;28;20479;-73
2023/01/13 04:00:00;;;;;;;1.60;1.20;;;8.80;98.20;;;;;;5016683;28;20461;-74
2023/01/13 04:02:39;;;;;;;1.60;1.20;;;8.80;98.20;;;;;;5012297;28;20479;-74
2023/01/13 04:05:08;;;;;;;1.70;1.20;;;8.80;98.20;;;;;;5021862;28;20485;-73
2023/01/13 04:07:45;;;;;;;1.60;1.20;;;8.80;98.20;;;;;;5012416;28;20513;-74
2023/01/13 04:10:16;;;;;;;1.60;1.20;;;8.80;98.20;;;;;;5020403;28;20487;-74
2023/01/13 04:13:03;;;;;;;1.60;1.20;;;8.70;98.20;;;;;;5015388;28;21068;-74
2023/01/13 04:15:34;;;;;;;1.60;1.30;;;8.70;98.20;;;;;;5030837;28;20907;-73
2023/01/13 04:18:15;;;;;;;1.60;1.20;;;8.70;98.20;;;;;;5013679;28;20491;-73
2023/01/13 04:20:43;;;;;;;1.60;1.20;;;8.60;98.20;;;;;;5028191;28;20462;-73
2023/01/13 04:23:12;;;;;;;1.60;1.20;;;8.60;98.20;;;;;;5015753;28;20467;-75
2023/01/13 04:25:39;;;;;;;1.60;1.30;;;8.60;98.20;;;;;;5025877;28;20538;-73
2023/01/13 04:28:06;;;;;;;1.60;1.20;;;8.60;98.20;;;;;;5013095;28;20474;-71
2023/01/13 04:30:33;;;;;;;1.60;1.20;;;8.50;98.20;;;;;;5024502;28;20913;-72
2023/01/13 04:33:00;;;;;;;1.60;1.23;;;8.50;98.20;;;;;;5014976;28;20487;-72
2023/01/13 04:35:28;;;;;;;1.60;1.10;;;8.50;98.20;;;;;;5030394;28;20514;-72
2023/01/13 04:37:54;;;;;;;1.60;1.20;;;8.40;98.20;;;;;;5015421;28;20486;-73
2023/01/13 04:40:21;;;;;;;1.60;1.20;;;8.40;98.20;;;;;;5021898;28;20466;-72
2023/01/13 04:42:48;;;;;;;1.60;1.20;;;8.40;98.20;;;;;;5017330;28;20487;-72
2023/01/13 04:45:15;;;;;;;1.70;1.30;;;8.40;98.20;;;;;;5025978;28;20498;-72
2023/01/13 04:47:41;;;;;;;1.63;1.20;;;8.40;98.20;;;;;;5016554;28;20494;-72
2023/01/13 04:50:10;;;;;;;1.63;1.30;;;8.40;98.20;;;;;;5027325;28;20486;-73
2023/01/13 04:52:38;;;;;;;1.60;1.20;;;8.40;98.20;;;;;;5018357;28;20479;-72
2023/01/13 04:55:06;;;;;;;1.67;1.20;;;8.40;98.20;;;;;;5027664;28;20494;-72
2023/01/13 04:57:33;;;;;;;1.60;1.20;;;8.40;98.20;;;;;;5012693;28;20479;-74
2023/01/13 05:00:00;;;;;;;1.60;1.20;;;8.40;98.20;;;;;;5022175;28;20844;-74
2023/01/13 05:02:27;;;;;;;1.60;1.20;;;8.50;98.20;;;;;;5015931;28;20518;-73
2023/01/13 05:04:54;;;;;;;1.60;1.20;;;8.50;98.20;;;;;;5026187;28;20569;-74
2023/01/13 05:07:21;;;;;;;1.60;1.20;;;8.60;98.20;;;;;;5012807;28;20522;-73
2023/01/13 05:09:49;;;;;;;1.60;1.20;;;8.60;98.20;;;;;;5023086;28;21029;-71
2023/01/13 05:17:44;;;;;;;1.60;1.13;;;8.60;98.20;;;;;;5013248;28;20490;-72
2023/01/13 05:20:12;;;;;;;1.60;1.20;;;8.70;98.20;;;;;;5024059;28;20505;-73
2023/01/13 05:25:25;;;;;;;1.60;1.20;;;8.70;98.20;;;;;;5022163;28;20462;-71
2023/01/13 05:27:53;;;;;;;1.63;1.20;;;8.70;98.20;;;;;;5014619;28;20545;-72
2023/01/13 05:30:22;;;;;;;1.60;1.20;;;8.70;98.20;;;;;;5021151;28;20494;-72
2023/01/13 05:32:49;;;;;;;1.67;1.20;;;8.70;98.20;;;;;;5012636;28;20479;-72
2023/01/13 05:35:16;;;;;;;1.67;1.30;;;8.70;98.20;;;;;;5025133;28;20479;-73
2023/01/13 05:37:43;;;;;;;1.60;1.20;;;8.70;98.20;;;;;;5013550;28;20478;-74
2023/01/13 05:43:23;;;;;;;1.60;1.10;;;8.70;98.20;;;;;;5014943;28;20887;-72
2023/01/13 05:45:52;;;;;;;1.60;1.20;;;8.60;98.20;;;;;;5014656;28;20482;-73
2023/01/13 05:48:21;;;;;;;1.67;1.30;;;8.70;98.20;;;;;;5021234;28;20470;-74
2023/01/13 05:50:49;;;;;;;1.60;1.20;;;8.60;98.20;;;;;;5019723;28;20922;-74
2023/01/13 05:53:16;;;;;;;1.60;1.20;;;8.60;98.20;;;;;;5025674;28;20479;-74
2023/01/13 05:55:44;;;;;;;1.60;1.20;;;8.60;98.20;;;;;;5025772;28;20479;-74
2023/01/13 05:58:13;;;;;;;1.63;1.40;;;8.60;98.20;;;;;;5006627;28;20880;-75
2023/01/13 06:00:41;;;;;;;1.60;1.20;;;8.60;98.20;;;;;;5019077;28;20949;-75
2023/01/13 06:03:08;;;;;;;1.60;1.20;;;8.60;98.20;;;;;;5007708;28;20791;-72
2023/01/13 06:05:35;;;;;;;1.70;1.40;;;8.60;98.20;;;;;;5026837;28;20486;-74
2023/01/13 06:08:04;;;;;;;1.60;1.10;;;8.60;98.20;;;;;;5011932;28;21040;-74
2023/01/13 06:10:31;;;;;;;1.60;1.20;;;8.60;98.20;;;;;;5025541;28;20574;-72
2023/01/13 06:12:58;;;;;;;1.60;1.20;;;8.60;98.20;;;;;;5013518;28;20494;-73
2023/01/13 06:15:27;;;;;;;1.60;1.20;;;8.60;98.20;;;;;;5026064;28;20483;-75
2023/01/13 06:17:55;;;;;;;1.67;1.20;;;8.60;98.20;;;;;;5011609;28;21035;-74
2023/01/13 06:20:22;;;;;;;1.70;1.40;;;8.60;98.20;;;;;;5027463;28;20456;-74
2023/01/13 06:22:50;;;;;;;1.60;1.20;;;8.60;98.20;;;;;;5014287;28;20483;-75
2023/01/13 06:25:24;;;;;;;1.60;1.20;;;8.60;98.20;;;;;;5027972;28;20483;-74
2023/01/13 06:27:51;;;;;;;1.63;1.30;;;8.60;98.20;;;;;;5009439;28;20494;-75
2023/01/13 06:30:18;;;;;;;1.60;1.20;;;8.70;98.20;;;;;;5021735;28;20492;-74
2023/01/13 06:32:51;;;;;;;1.63;1.20;;;8.70;98.20;;;;;;5014393;28;20960;-74
2023/01/13 06:35:23;;;;;;;1.60;1.20;;;8.70;98.20;;;;;;5025754;28;20478;-72
2023/01/13 06:37:53;;;;;;;1.60;1.20;;;8.60;98.20;;;;;;5014383;28;20883;-74
2023/01/13 06:40:20;;;;;;;1.60;1.20;;;8.60;98.20;;;;;;5025830;28;20455;-74
2023/01/13 06:45:31;;;;;;;1.60;1.17;;;8.60;98.20;;;;;;5020022;28;20483;-74
2023/01/13 06:48:00;;;;;;;1.60;1.20;;;8.60;98.20;;;;;;5011198;28;20479;-75
2023/01/13 06:50:27;;;;;;;1.60;1.20;;;8.50;98.20;;;;;;5024962;28;20483;-74
2023/01/13 06:52:54;;;;;;;1.70;1.30;;;8.60;98.20;;;;;;5014656;28;20487;-74
2023/01/13 06:55:21;;;;;;;1.60;1.30;;;8.50;98.20;;;;;;5026720;28;20479;-74
2023/01/13 06:57:50;;;;;;;1.60;1.20;;;8.50;98.20;;;;;;5010278;28;20883;-74
2023/01/13 07:00:17;;;;;;;1.60;1.20;;;8.50;98.20;;;;;;5025865;28;20455;-74
2023/01/13 07:02:44;;;;;;;1.60;1.20;;;8.50;98.20;;;;;;5013467;28;20483;-74
2023/01/13 07:05:13;;;;;;;2.80;2.60;;;8.50;98.20;;;;;;5026087;28;20494;-75
2023/01/13 07:07:40;;;;;;;1.63;1.20;;;8.50;98.20;;;;;;5013901;28;21001;-74
2023/01/13 07:10:12;;;;;;;1.70;1.30;;;8.50;98.20;;;;;;5006639;28;20478;-73
2023/01/13 07:15:20;;;;;;;1.70;1.30;;;8.50;98.20;;;;;;5015003;28;20468;-72
2023/01/13 07:17:47;;;;;;;1.60;1.20;;;8.50;98.20;;;;;;4986020;28;20547;-74
2023/01/13 07:20:16;;;;;;;1.67;1.30;;;8.50;98.20;;;;;;5013849;28;20466;-75
2023/01/13 07:22:43;;;;;;;1.60;1.20;;;8.50;98.20;;;;;;4993019;28;20547;-76
2023/01/13 07:25:10;;;;;;;1.60;1.20;;;8.50;98.20;;;;;;5016769;28;20491;-74
2023/01/13 07:27:38;;;;;;;1.60;1.20;;;8.40;98.20;;;;;;4989802;28;20492;-74
2023/01/13 07:30:06;;;;;;;1.60;1.10;;;8.40;98.20;;;;;;5013480;28;20467;-77
2023/01/13 07:32:33;;;;;;;1.60;1.20;;;8.40;98.20;;;;;;4994639;28;20505;-75
2023/01/13 07:35:04;;;;;;;1.60;1.20;;;8.40;98.20;;;;;;5014517;28;21008;-76
2023/01/13 07:37:34;;;;;;;1.60;1.20;;;8.40;98.20;;;;;;4988609;28;20508;-75
2023/01/13 07:40:01;;;;;;;1.60;1.20;;;8.30;98.20;;;;;;5015098;28;20475;-76
2023/01/13 07:45:12;;;;;;;1.63;1.30;;;8.30;98.20;;;;;;5018652;28;21018;-76
2023/01/13 07:47:39;;;;;;;1.67;1.40;;;8.30;98.20;;;;;;4987607;28;21064;-76
2023/01/13 07:50:08;;;;;;;1.60;1.20;;;8.30;98.20;;;;;;5013974;28;20456;-78
2023/01/13 07:52:36;;;;;;;1.60;1.20;;;8.30;98.20;;;;;;5002801;28;20487;-75
2023/01/13 07:55:02;;;;;;;1.63;1.30;;;8.30;98.20;;;;;;5014759;28;20857;-77
2023/01/13 07:57:29;;;;;;;1.60;1.30;;;8.30;98.20;;;;;;4987101;28;20473;-76
2023/01/13 07:59:56;;;;;;;1.60;1.30;;;8.20;98.20;;;;;;5008278;28;20460;-76
2023/01/13 08:02:25;;;;;;;1.60;1.20;;;8.20;98.20;;;;;;4991207;28;21144;-76
2023/01/13 08:04:52;;;;;;;1.60;1.20;;;8.20;98.20;;;;;;5010657;28;20488;-75
2023/01/13 08:07:19;;;;;;;1.60;1.20;;;8.30;98.20;;;;;;4990420;28;20490;-74
2023/01/13 08:09:47;;;;;;;1.60;1.23;;;8.30;98.20;;;;;;5003243;28;20468;-75
2023/01/13 08:14:58;;;;;;;1.60;1.20;;;8.40;98.20;;;;;;5009645;28;20542;-76
2023/01/13 08:17:25;;;;;;;1.60;1.20;;;8.40;98.20;;;;;;4988067;28;20481;-76
2023/01/13 08:19:52;;;;;;;1.60;1.30;;;8.40;98.20;;;;;;5006519;28;20471;-75
2023/01/13 08:22:19;;;;;;;1.60;1.23;;;8.50;98.20;;;;;;4988577;28;20485;-75
2023/01/13 08:24:47;;;;;;;1.70;1.47;;;8.50;98.20;;;;;;5007312;28;20475;-76
2023/01/13 08:27:14;;;;;;;1.60;1.20;;;8.50;98.20;;;;;;4998842;28;20486;-73
2023/01/13 08:29:40;;;;;;;1.60;1.20;;;8.50;98.20;;;;;;5012820;28;20456;-76
2023/01/13 08:32:07;;;;;;;1.60;1.20;;;8.50;98.20;;;;;;4992951;28;20506;-76
2023/01/13 08:34:36;;;;;;;1.60;1.30;;;8.60;98.20;;;;;;5005416;28;20526;-77
2023/01/13 08:37:02;;;;;;;1.63;1.30;;;8.70;98.20;;;;;;4992377;28;20518;-74
2023/01/13 08:39:29;;;;;;;1.60;1.20;;;8.70;98.20;;;;;;5004825;28;20471;-76
2023/01/13 08:41:58;;;;;;;1.60;1.27;;;8.80;98.20;;;;;;4994539;28;20489;-76
2023/01/13 08:44:26;;;;;;;1.60;1.20;;;8.80;98.20;;;;;;5008114;28;20502;-75
2023/01/13 08:46:54;;;;;;;1.60;1.30;;;8.80;98.20;;;;;;5000458;28;20480;-75
2023/01/13 08:49:23;;;;;;;1.60;1.10;;;8.90;98.20;;;;;;5010092;28;20471;-75
2023/01/13 08:51:50;;;;;;;1.60;1.20;;;8.90;98.20;;;;;;4995424;28;20920;-74
2023/01/13 08:54:18;;;;;;;1.60;1.23;;;8.90;98.20;;;;;;5006794;28;20855;-76
2023/01/13 08:56:45;;;;;;;1.60;1.10;;;9.00;98.20;;;;;;4993765;28;20894;-74
2023/01/13 08:59:14;;;;;;;1.60;1.10;;;9.00;98.20;;;;;;5012976;28;20951;-75
2023/01/13 09:01:41;;;;;;;1.70;1.30;;;9.00;98.20;;;;;;4999051;28;20850;-74
2023/01/13 09:04:14;;;;;;;1.60;1.20;;;9.00;98.20;;;;;;5013377;28;20460;-75
2023/01/13 09:06:41;;;;;;;1.60;1.20;;;9.10;98.20;;;;;;5006609;28;20546;-74
2023/01/13 09:09:08;;;;;;;1.60;1.20;;;9.10;98.20;;;;;;5014084;28;20973;-72
2023/01/13 09:14:29;;;;;;;1.60;1.20;;;9.20;98.20;;;;;;5011164;28;20585;-72
2023/01/13 09:16:55;;;;;;;1.60;1.20;;;9.20;98.20;;;;;;5005075;28;20864;-72
2023/01/13 09:19:22;;;;;;;1.60;1.20;;;9.20;98.20;;;;;;5014604;28;20469;-74
2023/01/13 09:21:49;;;;;;;1.60;1.20;;;9.30;98.20;;;;;;5006957;28;20554;-72
2023/01/13 09:24:16;;;;;;;1.60;1.10;;;9.30;98.20;;;;;;5011280;28;20482;-72
2023/01/13 09:26:43;;;;;;;1.60;1.13;;;9.30;98.20;;;;;;5011314;28;20479;-72
2023/01/13 09:29:09;;;;;;;1.60;1.20;;;9.40;98.20;;;;;;5010954;28;20456;-71
2023/01/13 09:31:38;;;;;;;1.60;1.10;;;9.40;98.20;;;;;;5003462;28;20486;-74
2023/01/13 09:36:51;;;;;;;1.60;1.30;;;9.60;98.20;;;;;;5001080;28;20618;-73
2023/01/13 09:39:18;;;;;;;1.60;1.10;;;9.70;98.20;;;;;;5018749;28;20456;-74
2023/01/13 09:44:42;;;;;;;1.60;1.20;;;9.80;98.20;;;;;;5009764;28;20491;-74
2023/01/13 09:47:18;;;;;;;1.60;1.30;;;9.80;98.20;;;;;;5000034;28;20478;-73
2023/01/13 09:49:45;;;;;;;1.70;1.33;;;9.80;98.20;;;;;;5017375;28;20467;-73
2023/01/13 09:52:18;;;;;;;1.60;1.10;;;9.80;98.20;;;;;;4999997;28;20479;-73
2023/01/13 09:54:49;;;;;;;1.60;1.10;;;9.80;98.20;;;;;;5015882;28;20484;-73
2023/01/13 09:57:19;;;;;;;1.70;1.50;;;9.80;98.20;;;;;;5001345;28;20472;-73
2023/01/13 09:59:46;;;;;;;1.60;1.20;;;9.80;98.20;;;;;;5026182;28;20463;-73
2023/01/13 10:02:26;;;;;;;1.60;1.10;;;9.80;98.20;;;;;;4996517;28;20995;-74
2023/01/13 10:05:05;;;;;;;1.60;1.20;;;9.80;98.20;;;;;;5014212;28;20579;-74
2023/01/13 10:07:36;;;;;;;1.60;1.20;;;9.90;98.20;;;;;;4986836;28;20511;-74
2023/01/13 10:10:05;;;;;;;1.60;1.20;;;9.90;98.20;;;;;;5012791;28;21626;-74
2023/01/13 10:15:20;;;;;;;1.60;1.10;;;10.00;98.20;;;;;;5021386;28;20462;-73
2023/01/13 10:17:55;;;;;;;1.60;1.10;;;10.10;98.20;;;;;;4984848;28;20484;-73
2023/01/13 10:20:27;;;;;;;1.60;1.20;;;10.10;98.20;;;;;;5018688;28;20491;-74
2023/01/13 10:23:04;;;;;;;1.60;1.10;;;10.10;98.20;;;;;;4985723;28;20521;-73
2023/01/13 10:25:47;;;;;;;1.60;1.20;;;10.20;98.20;;;;;;5016083;28;21022;-74
2023/01/13 10:28:17;;;;;;;1.60;1.10;;;10.20;98.20;;;;;;4986122;28;20543;-73
2023/01/13 10:30:45;;;;;;;1.60;1.20;;;10.20;98.20;;;;;;5010623;28;20460;-75
2023/01/13 10:33:16;;;;;;;1.60;1.20;;;10.20;98.20;;;;;;4995263;28;20487;-74
2023/01/13 10:35:56;;;;;;;1.60;1.10;;;10.20;98.20;;;;;;5011226;28;20536;-72
2023/01/13 10:38:24;;;;;;;1.60;1.20;;;10.20;98.20;;;;;;4988092;28;20817;-71
2023/01/13 10:40:53;;;;;;;1.60;1.20;;;10.20;98.20;;;;;;5003616;28;20457;-73
2023/01/13 10:43:20;;;;;;;1.60;1.07;;;10.20;98.20;;;;;;4997556;28;20464;-75
2023/01/13 10:46:00;;;;;;;1.60;1.10;;;10.20;98.20;;;;;;5015486;28;21182;-73
2023/01/13 10:48:39;;;;;;;1.60;1.10;;;10.20;98.20;;;;;;4998101;28;20463;-74
2023/01/13 10:51:21;;;;;;;1.60;1.10;;;10.20;98.20;;;;;;5001022;28;20978;-74
2023/01/13 10:53:57;;;;;;;1.60;1.20;;;10.20;98.20;;;;;;4998684;28;20464;-71
2023/01/13 10:56:26;;;;;;;1.60;1.10;;;10.30;98.20;;;;;;4997210;28;20472;-74
2023/01/13 10:59:08;;;;;;;1.60;1.10;;;10.20;98.20;;;;;;5012329;28;20461;-71
2023/01/13 11:01:35;;;;;;;1.60;1.10;;;10.20;98.20;;;;;;4996582;28;20477;-73
2023/01/13 11:04:25;;;;;;;1.60;1.10;;;10.30;98.20;;;;;;5007988;28;20499;-74
2023/01/13 11:06:52;;;;;;;1.60;1.10;;;10.30;98.20;;;;;;4992792;28;20477;-73
2023/01/13 11:09:21;;;;;;;1.60;1.10;;;10.40;98.20;;;;;;5007848;28;20468;-73
2023/01/13 11:11:54;;;;;;;1.60;1.20;;;10.40;98.20;;;;;;4993056;28;20491;-74
2023/01/13 11:14:38;;;;;;;1.60;1.10;;;10.40;98.20;;;;;;5003687;28;20546;-74
2023/01/13 11:17:23;;;;;;;1.60;1.10;;;10.50;98.20;;;;;;4991382;28;20487;-73
2023/01/13 11:19:58;;;;;;;1.60;1.10;;;10.50;98.20;;;;;;5011058;28;20475;-73
2023/01/13 11:22:29;;;;;;;1.60;1.20;;;10.60;98.20;;;;;;4989340;28;21011;-73
2023/01/13 11:25:00;;;;;;;1.60;1.10;;;10.60;98.20;;;;;;5009885;28;20779;-72
2023/01/13 11:27:38;;;;;;;1.60;1.10;;;10.60;98.20;;;;;;4989257;28;21020;-72
2023/01/13 11:30:12;;;;;;;1.60;1.10;;;10.60;98.20;;;;;;5014721;28;20467;-73
2023/01/13 11:32:55;;;;;;;1.60;1.10;;;10.60;98.20;;;;;;4995094;28;20860;-72
2023/01/13 11:35:24;;;;;;;1.60;1.20;;;10.60;98.20;;;;;;5011930;28;20570;-73
2023/01/13 11:37:55;;;;;;;1.60;1.10;;;10.60;98.20;;;;;;4988303;28;20494;-75
2023/01/13 11:40:29;;;;;;;1.60;1.10;;;10.70;98.20;;;;;;5015537;28;20460;-75
2023/01/13 11:43:03;;;;;;;1.60;1.10;;;10.70;98.20;;;;;;4994863;28;20476;-71
2023/01/13 11:45:36;;;;;;;1.57;1.10;;;10.70;98.20;;;;;;5014425;28;20506;-72
2023/01/13 11:48:04;;;;;;;1.60;1.20;;;10.60;98.20;;;;;;4992114;28;20608;-72
2023/01/13 11:50:36;;;;;;;1.57;1.10;;;10.60;98.20;;;;;;5011679;28;20546;-72
2023/01/13 11:53:21;;;;;;;1.60;1.10;;;10.50;98.20;;;;;;4989045;28;20490;-72
2023/01/13 11:56:00;;;;;;;1.60;1.10;;;10.50;98.20;;;;;;5009342;28;20865;-72
2023/01/13 11:58:47;;;;;;;1.60;1.10;;;10.50;98.20;;;;;;4997858;28;20491;-72
2023/01/13 12:01:27;;;;;;;1.60;1.30;;;10.50;98.20;;;;;;4997203;28;20488;-73
2023/01/13 12:04:07;;;;;;;1.60;1.20;;;10.50;98.20;;;;;;5011016;28;20462;-72
2023/01/13 12:06:37;;;;;;;1.60;1.10;;;10.60;98.20;;;;;;4999257;28;20495;-73
2023/01/13 12:09:25;;;;;;;1.57;1.10;;;10.60;98.20;;;;;;5000346;28;21131;-74
2023/01/13 12:12:26;;;;;;;1.60;1.10;;;10.60;98.20;;;;;;4997409;28;20530;-75
2023/01/13 12:15:20;;;;;;;1.60;1.20;;;10.60;98.20;;;;;;5010495;28;20486;-72
2023/01/13 12:17:58;;;;;;;1.60;1.20;;;10.50;98.20;;;;;;4991258;28;20575;-71
2023/01/13 12:20:38;;;;;;;1.60;1.20;;;10.50;98.20;;;;;;5011828;28;20463;-72
2023/01/13 12:23:13;;;;;;;1.57;1.10;;;10.50;98.20;;;;;;5004517;28;20482;-72
2023/01/13 12:25:43;;;;;;;1.60;1.10;;;10.50;98.20;;;;;;5010541;28;20519;-71
2023/01/13 12:28:14;;;;;;;1.57;1.10;;;10.40;98.20;;;;;;5000508;28;20521;-71
2023/01/13 12:30:45;;;;;;;1.57;1.13;;;10.50;98.20;;;;;;5012796;28;20467;-72
2023/01/13 12:33:20;;;;;;;1.60;1.10;;;10.50;98.20;;;;;;5000528;28;20484;-72
2023/01/13 12:35:55;;;;;;;1.60;1.10;;;10.50;98.20;;;;;;5014581;28;20482;-73
2023/01/13 12:38:31;;;;;;;1.60;1.10;;;10.50;98.20;;;;;;4989880;28;20475;-75
2023/01/13 12:41:08;;;;;;;1.53;1.10;;;10.60;98.20;;;;;;5005856;28;20459;-72
2023/01/13 12:46:56;;;;;;;1.53;1.10;;;10.50;98.20;;;;;;4997591;28;20468;-72
2023/01/13 12:49:26;;;;;;;1.60;1.20;;;10.30;98.20;;;;;;5013342;28;20455;-73
2023/01/13 12:52:20;;;;;;;1.60;1.10;;;10.30;98.20;;;;;;4998742;28;20483;-75
2023/01/13 12:55:16;;;;;;;1.50;1.10;;;10.10;98.20;;;;;;5018661;28;20491;-75
2023/01/13 12:58:15;;;;;;;1.60;1.10;;;10.00;98.20;;;;;;4995485;28;20546;-73
2023/01/13 13:01:11;;;;;;;1.60;1.20;;;9.80;98.20;;;;;;4938410;28;20511;-77
2023/01/13 13:03:39;;;;;;;1.60;1.10;;;9.70;98.20;;;;;;4986864;28;20475;-76
2023/01/13 13:06:19;;;;;;;1.60;1.10;;;9.70;98.20;;;;;;5002155;28;20503;-76
2023/01/13 13:09:02;;;;;;;1.60;1.13;;;9.70;98.20;;;;;;5002094;28;20474;-72
2023/01/13 13:15:00;;;;;;;1.60;1.10;;;9.80;98.20;;;;;;5012770;28;20478;-74
2023/01/13 13:17:43;;;;;;;1.53;1.10;;;9.90;98.20;;;;;;4988933;28;20499;-74
2023/01/13 13:20:52;;;;;;;1.60;1.10;;;9.90;98.20;;;;;;5017678;28;20464;-74
2023/01/13 13:23:42;;;;;;;1.57;1.10;;;9.90;98.20;;;;;;4987693;28;20488;-74
2023/01/13 13:26:25;;;;;;;1.60;1.20;;;9.90;98.20;;;;;;5002586;28;21026;-72
2023/01/13 13:29:10;;;;;;;1.60;1.10;;;9.90;98.20;;;;;;5009354;28;20494;-72
2023/01/13 13:31:55;;;;;;;1.60;1.20;;;9.90;98.20;;;;;;5004591;28;20516;-74
2023/01/13 13:34:30;;;;;;;1.60;1.20;;;9.80;98.20;;;;;;5022359;28;20467;-74
2023/01/13 13:37:19;;;;;;;1.60;1.10;;;9.80;98.20;;;;;;5001885;28;20585;-73
2023/01/13 13:48:22;;;;;;;1.60;1.20;;;9.70;98.20;;;;;;5005064;28;20522;-73
2023/01/13 13:50:53;;;;;;;1.57;1.10;;;9.70;98.20;;;;;;5004804;28;20525;-72
2023/01/13 13:53:20;;;;;;;1.60;1.10;;;9.70;98.20;;;;;;5015222;28;20491;-74
2023/01/13 13:55:58;;;;;;;1.60;1.17;;;9.70;98.20;;;;;;5009348;28;20959;-73
2023/01/13 13:58:27;;;;;;;1.60;1.40;;;9.70;98.20;;;;;;5002594;28;20549;-73
2023/01/13 14:00:56;;;;;;;1.57;1.17;;;9.70;98.20;;;;;;5005607;28;20973;-73
2023/01/13 14:03:25;;;;;;;1.60;1.20;;;9.70;98.20;;;;;;5003133;28;20471;-73
2023/01/13 14:05:58;;;;;;;1.60;1.10;;;9.80;98.20;;;;;;5004091;28;20496;-75
2023/01/13 14:08:27;;;;;;;1.60;1.10;;;9.90;98.20;;;;;;5001350;28;20855;-72
2023/01/13 14:10:54;;;;;;;1.60;1.17;;;9.90;98.20;;;;;;5002631;28;20546;-73
2023/01/13 14:13:23;;;;;;;1.60;1.20;;;10.00;98.20;;;;;;5013023;28;21072;-73
2023/01/13 14:16:00;;;;;;;1.90;1.63;;;10.00;98.20;;;;;;5008501;28;20491;-71